Valemount, Canada
Current Conditions -  °F | °C
As of 9:00 PM on Saturday 25 Oct 2014 (Local Time) from CYWL Reporting Station
Light Rain Light Rain  
Wind Chill: 26°   Ceiling: 1400
Heat Index: 32°   Visibility: 2mi
Dew Point: 32°   Wind: 7mph
Humidity: 100%   Direction: 310°NW
Pressure: 29.35"   Gusts: NA
Location:  52.83°N, 119.25°W
Report Text: CYWL 260400Z 31006KT 2SM -RA BR OVC014 00/M00 A2935 RMK SC8 SLP970
Loading
Personal Weather Stations






























Interactive Weather Map New forecast layout! Learn more

10-Day Weather Forecast

Advertisements
Track Severe Weather on mobile